sensor_id;sensor_type;location;lat;lon;timestamp;P1;durP1;ratioP1;P2;durP2;ratioP2
19059;SDS011;9663;48.996;8.334;2024-02-16T00:00:07;4.30;;;2.15;;
19059;SDS011;9663;48.996;8.334;2024-02-16T00:02:36;4.75;;;2.33;;
19059;SDS011;9663;48.996;8.334;2024-02-16T00:05:02;5.43;;;2.42;;
19059;SDS011;9663;48.996;8.334;2024-02-16T00:07:31;4.13;;;2.00;;
19059;SDS011;9663;48.996;8.334;2024-02-16T00:09:56;3.83;;;1.80;;
19059;SDS011;9663;48.996;8.334;2024-02-16T00:12:22;4.63;;;2.08;;
19059;SDS011;9663;48.996;8.334;2024-02-16T00:14:48;4.28;;;2.10;;
19059;SDS011;9663;48.996;8.334;2024-02-16T00:17:14;4.88;;;1.92;;
19059;SDS011;9663;48.996;8.334;2024-02-16T00:19:40;4.75;;;2.20;;
19059;SDS011;9663;48.996;8.334;2024-02-16T00:22:05;5.63;;;2.25;;
19059;SDS011;9663;48.996;8.334;2024-02-16T00:24:34;4.75;;;2.15;;
19059;SDS011;9663;48.996;8.334;2024-02-16T00:27:01;4.68;;;2.13;;
19059;SDS011;9663;48.996;8.334;2024-02-16T00:29:30;5.00;;;2.13;;
19059;SDS011;9663;48.996;8.334;2024-02-16T00:31:57;5.47;;;2.00;;
19059;SDS011;9663;48.996;8.334;2024-02-16T00:34:24;4.90;;;1.92;;
19059;SDS011;9663;48.996;8.334;2024-02-16T00:36:50;5.00;;;1.92;;
19059;SDS011;9663;48.996;8.334;2024-02-16T00:39:17;4.65;;;1.88;;
19059;SDS011;9663;48.996;8.334;2024-02-16T00:41:43;4.60;;;2.05;;
19059;SDS011;9663;48.996;8.334;2024-02-16T00:44:09;4.70;;;1.92;;
19059;SDS011;9663;48.996;8.334;2024-02-16T00:46:38;4.15;;;1.80;;
19059;SDS011;9663;48.996;8.334;2024-02-16T00:49:03;4.05;;;2.05;;
19059;SDS011;9663;48.996;8.334;2024-02-16T00:51:29;4.50;;;2.10;;
19059;SDS011;9663;48.996;8.334;2024-02-16T00:53:55;4.40;;;2.17;;
19059;SDS011;9663;48.996;8.334;2024-02-16T00:56:21;4.00;;;1.98;;
19059;SDS011;9663;48.996;8.334;2024-02-16T00:58:47;4.40;;;2.00;;
19059;SDS011;9663;48.996;8.334;2024-02-16T01:01:12;4.50;;;1.83;;
19059;SDS011;9663;48.996;8.334;2024-02-16T01:03:39;4.68;;;2.10;;
19059;SDS011;9663;48.996;8.334;2024-02-16T01:06:05;3.78;;;1.90;;
19059;SDS011;9663;48.996;8.334;2024-02-16T01:08:31;4.53;;;1.98;;
19059;SDS011;9663;48.996;8.334;2024-02-16T01:10:57;4.28;;;2.10;;
19059;SDS011;9663;48.996;8.334;2024-02-16T01:13:23;4.18;;;1.83;;
19059;SDS011;9663;48.996;8.334;2024-02-16T01:15:49;4.35;;;1.88;;
19059;SDS011;9663;48.996;8.334;2024-02-16T01:18:15;3.75;;;1.80;;
19059;SDS011;9663;48.996;8.334;2024-02-16T01:20:40;4.95;;;1.80;;
19059;SDS011;9663;48.996;8.334;2024-02-16T01:23:06;4.15;;;1.83;;
19059;SDS011;9663;48.996;8.334;2024-02-16T01:25:32;3.95;;;1.88;;
19059;SDS011;9663;48.996;8.334;2024-02-16T01:27:57;4.15;;;1.88;;
19059;SDS011;9663;48.996;8.334;2024-02-16T01:30:23;4.95;;;2.00;;
19059;SDS011;9663;48.996;8.334;2024-02-16T01:32:49;3.45;;;1.70;;
19059;SDS011;9663;48.996;8.334;2024-02-16T01:35:15;4.28;;;1.83;;
19059;SDS011;9663;48.996;8.334;2024-02-16T01:37:41;3.80;;;1.60;;
19059;SDS011;9663;48.996;8.334;2024-02-16T01:40:08;3.97;;;1.60;;
19059;SDS011;9663;48.996;8.334;2024-02-16T01:42:39;3.92;;;1.73;;
19059;SDS011;9663;48.996;8.334;2024-02-16T01:45:07;3.65;;;1.65;;
19059;SDS011;9663;48.996;8.334;2024-02-16T01:47:41;3.60;;;1.70;;
19059;SDS011;9663;48.996;8.334;2024-02-16T01:50:11;3.92;;;1.80;;
19059;SDS011;9663;48.996;8.334;2024-02-16T01:52:37;4.85;;;1.80;;
19059;SDS011;9663;48.996;8.334;2024-02-16T01:55:04;4.30;;;1.90;;
19059;SDS011;9663;48.996;8.334;2024-02-16T01:57:39;4.45;;;1.55;;
19059;SDS011;9663;48.996;8.334;2024-02-16T02:00:08;3.97;;;1.48;;
19059;SDS011;9663;48.996;8.334;2024-02-16T02:02:34;4.35;;;1.92;;
19059;SDS011;9663;48.996;8.334;2024-02-16T02:05:01;3.72;;;1.75;;
19059;SDS011;9663;48.996;8.334;2024-02-16T02:07:28;3.72;;;1.63;;
19059;SDS011;9663;48.996;8.334;2024-02-16T02:09:55;4.13;;;1.60;;
19059;SDS011;9663;48.996;8.334;2024-02-16T02:12:21;5.03;;;1.63;;
19059;SDS011;9663;48.996;8.334;2024-02-16T02:14:48;3.70;;;1.55;;
19059;SDS011;9663;48.996;8.334;2024-02-16T02:17:14;3.75;;;1.70;;
19059;SDS011;9663;48.996;8.334;2024-02-16T02:19:41;3.90;;;1.65;;
19059;SDS011;9663;48.996;8.334;2024-02-16T02:22:17;5.35;;;2.03;;
19059;SDS011;9663;48.996;8.334;2024-02-16T02:24:44;4.15;;;1.80;;
19059;SDS011;9663;48.996;8.334;2024-02-16T02:27:11;3.38;;;1.52;;
19059;SDS011;9663;48.996;8.334;2024-02-16T02:29:38;3.53;;;1.50;;
19059;SDS011;9663;48.996;8.334;2024-02-16T02:32:04;3.67;;;1.50;;
19059;SDS011;9663;48.996;8.334;2024-02-16T02:34:30;3.45;;;1.48;;
19059;SDS011;9663;48.996;8.334;2024-02-16T02:36:57;3.78;;;1.60;;
19059;SDS011;9663;48.996;8.334;2024-02-16T02:39:22;4.22;;;1.80;;
19059;SDS011;9663;48.996;8.334;2024-02-16T02:41:48;3.60;;;1.50;;
19059;SDS011;9663;48.996;8.334;2024-02-16T02:44:14;4.03;;;1.77;;
19059;SDS011;9663;48.996;8.334;2024-02-16T02:46:40;4.13;;;1.55;;
19059;SDS011;9663;48.996;8.334;2024-02-16T02:49:06;4.05;;;1.50;;
19059;SDS011;9663;48.996;8.334;2024-02-16T02:51:31;4.28;;;1.50;;
19059;SDS011;9663;48.996;8.334;2024-02-16T02:53:57;3.83;;;1.60;;
19059;SDS011;9663;48.996;8.334;2024-02-16T02:56:23;3.65;;;1.60;;
19059;SDS011;9663;48.996;8.334;2024-02-16T02:58:48;3.97;;;1.70;;
19059;SDS011;9663;48.996;8.334;2024-02-16T03:01:14;4.18;;;1.67;;
19059;SDS011;9663;48.996;8.334;2024-02-16T03:03:40;3.55;;;1.80;;
19059;SDS011;9663;48.996;8.334;2024-02-16T03:06:07;4.40;;;1.83;;
19059;SDS011;9663;48.996;8.334;2024-02-16T03:08:33;3.88;;;1.75;;
19059;SDS011;9663;48.996;8.334;2024-02-16T03:11:00;3.85;;;1.63;;
19059;SDS011;9663;48.996;8.334;2024-02-16T03:13:26;3.80;;;1.50;;
19059;SDS011;9663;48.996;8.334;2024-02-16T03:15:52;4.40;;;1.70;;
19059;SDS011;9663;48.996;8.334;2024-02-16T03:18:21;3.67;;;1.65;;
19059;SDS011;9663;48.996;8.334;2024-02-16T03:20:47;3.55;;;1.70;;
19059;SDS011;9663;48.996;8.334;2024-02-16T03:23:14;3.42;;;1.50;;
19059;SDS011;9663;48.996;8.334;2024-02-16T03:25:40;3.67;;;1.67;;
19059;SDS011;9663;48.996;8.334;2024-02-16T03:28:12;4.15;;;1.70;;
19059;SDS011;9663;48.996;8.334;2024-02-16T03:30:38;4.20;;;1.70;;
19059;SDS011;9663;48.996;8.334;2024-02-16T03:33:05;4.07;;;1.60;;
19059;SDS011;9663;48.996;8.334;2024-02-16T03:35:31;4.15;;;1.80;;
19059;SDS011;9663;48.996;8.334;2024-02-16T03:37:56;4.03;;;1.67;;
19059;SDS011;9663;48.996;8.334;2024-02-16T03:40:22;3.85;;;1.73;;
19059;SDS011;9663;48.996;8.334;2024-02-16T03:42:49;3.33;;;1.30;;
19059;SDS011;9663;48.996;8.334;2024-02-16T03:45:16;3.30;;;1.50;;
19059;SDS011;9663;48.996;8.334;2024-02-16T03:47:42;3.58;;;1.42;;
19059;SDS011;9663;48.996;8.334;2024-02-16T03:50:08;3.58;;;1.60;;
19059;SDS011;9663;48.996;8.334;2024-02-16T03:52:35;3.72;;;1.35;;
19059;SDS011;9663;48.996;8.334;2024-02-16T03:55:02;5.28;;;1.73;;
19059;SDS011;9663;48.996;8.334;2024-02-16T03:57:29;3.58;;;1.45;;
19059;SDS011;9663;48.996;8.334;2024-02-16T03:59:56;2.97;;;1.38;;
19059;SDS011;9663;48.996;8.334;2024-02-16T04:02:22;3.80;;;1.40;;
19059;SDS011;9663;48.996;8.334;2024-02-16T04:04:48;4.60;;;1.67;;
19059;SDS011;9663;48.996;8.334;2024-02-16T04:07:13;3.67;;;1.60;;
19059;SDS011;9663;48.996;8.334;2024-02-16T04:09:39;3.50;;;1.50;;
19059;SDS011;9663;48.996;8.334;2024-02-16T04:12:05;5.13;;;1.50;;
19059;SDS011;9663;48.996;8.334;2024-02-16T04:14:31;4.43;;;1.95;;
19059;SDS011;9663;48.996;8.334;2024-02-16T04:16:58;3.70;;;1.52;;
19059;SDS011;9663;48.996;8.334;2024-02-16T04:19:25;3.70;;;1.48;;
19059;SDS011;9663;48.996;8.334;2024-02-16T04:21:51;3.92;;;1.60;;
19059;SDS011;9663;48.996;8.334;2024-02-16T04:24:17;3.40;;;1.50;;
19059;SDS011;9663;48.996;8.334;2024-02-16T04:26:43;3.53;;;1.50;;
19059;SDS011;9663;48.996;8.334;2024-02-16T04:29:09;3.83;;;1.63;;
19059;SDS011;9663;48.996;8.334;2024-02-16T04:31:38;3.45;;;1.55;;
19059;SDS011;9663;48.996;8.334;2024-02-16T04:34:05;3.58;;;1.38;;
19059;SDS011;9663;48.996;8.334;2024-02-16T04:36:31;3.53;;;1.50;;
19059;SDS011;9663;48.996;8.334;2024-02-16T04:38:57;3.75;;;1.60;;
19059;SDS011;9663;48.996;8.334;2024-02-16T04:41:22;3.05;;;1.38;;
19059;SDS011;9663;48.996;8.334;2024-02-16T04:43:48;4.05;;;1.45;;
19059;SDS011;9663;48.996;8.334;2024-02-16T04:46:14;3.13;;;1.38;;
19059;SDS011;9663;48.996;8.334;2024-02-16T04:48:41;3.92;;;1.40;;
19059;SDS011;9663;48.996;8.334;2024-02-16T04:51:07;3.95;;;1.50;;
19059;SDS011;9663;48.996;8.334;2024-02-16T04:53:32;3.90;;;1.70;;
19059;SDS011;9663;48.996;8.334;2024-02-16T04:55:58;4.40;;;1.60;;
19059;SDS011;9663;48.996;8.334;2024-02-16T04:58:24;3.85;;;1.67;;
19059;SDS011;9663;48.996;8.334;2024-02-16T05:00:50;4.28;;;1.80;;
19059;SDS011;9663;48.996;8.334;2024-02-16T05:03:16;3.90;;;1.75;;
19059;SDS011;9663;48.996;8.334;2024-02-16T05:05:42;4.25;;;1.80;;
19059;SDS011;9663;48.996;8.334;2024-02-16T05:08:09;4.10;;;1.70;;
19059;SDS011;9663;48.996;8.334;2024-02-16T05:10:34;4.13;;;1.90;;
19059;SDS011;9663;48.996;8.334;2024-02-16T05:13:00;3.97;;;1.80;;
19059;SDS011;9663;48.996;8.334;2024-02-16T05:15:26;4.03;;;1.80;;
19059;SDS011;9663;48.996;8.334;2024-02-16T05:17:52;3.90;;;1.60;;
19059;SDS011;9663;48.996;8.334;2024-02-16T05:20:18;4.07;;;1.80;;
19059;SDS011;9663;48.996;8.334;2024-02-16T05:22:44;3.78;;;1.67;;
19059;SDS011;9663;48.996;8.334;2024-02-16T05:25:14;4.00;;;1.63;;
19059;SDS011;9663;48.996;8.334;2024-02-16T05:27:46;3.90;;;1.70;;
19059;SDS011;9663;48.996;8.334;2024-02-16T05:30:12;3.90;;;1.80;;
19059;SDS011;9663;48.996;8.334;2024-02-16T05:32:40;4.95;;;1.67;;
19059;SDS011;9663;48.996;8.334;2024-02-16T05:35:07;3.92;;;1.60;;
19059;SDS011;9663;48.996;8.334;2024-02-16T05:37:37;3.92;;;1.52;;
19059;SDS011;9663;48.996;8.334;2024-02-16T05:40:12;3.92;;;1.67;;
19059;SDS011;9663;48.996;8.334;2024-02-16T05:42:50;3.92;;;1.70;;
19059;SDS011;9663;48.996;8.334;2024-02-16T05:45:17;4.82;;;1.80;;
19059;SDS011;9663;48.996;8.334;2024-02-16T05:47:43;4.35;;;1.80;;
19059;SDS011;9663;48.996;8.334;2024-02-16T05:50:11;4.40;;;1.95;;
19059;SDS011;9663;48.996;8.334;2024-02-16T05:52:38;3.70;;;1.63;;
19059;SDS011;9663;48.996;8.334;2024-02-16T05:55:08;3.78;;;1.48;;
19059;SDS011;9663;48.996;8.334;2024-02-16T05:57:35;4.28;;;1.60;;
19059;SDS011;9663;48.996;8.334;2024-02-16T06:00:05;5.65;;;1.77;;
19059;SDS011;9663;48.996;8.334;2024-02-16T06:02:33;4.05;;;1.50;;
19059;SDS011;9663;48.996;8.334;2024-02-16T06:05:00;3.60;;;1.40;;
19059;SDS011;9663;48.996;8.334;2024-02-16T06:07:27;3.45;;;1.45;;
19059;SDS011;9663;48.996;8.334;2024-02-16T06:09:57;3.17;;;1.40;;
19059;SDS011;9663;48.996;8.334;2024-02-16T06:12:23;3.30;;;1.40;;
19059;SDS011;9663;48.996;8.334;2024-02-16T06:14:49;3.08;;;1.30;;
19059;SDS011;9663;48.996;8.334;2024-02-16T06:17:16;3.22;;;1.27;;
19059;SDS011;9663;48.996;8.334;2024-02-16T06:19:42;4.10;;;1.35;;
19059;SDS011;9663;48.996;8.334;2024-02-16T06:22:08;3.55;;;1.30;;
19059;SDS011;9663;48.996;8.334;2024-02-16T06:24:35;3.90;;;1.30;;
19059;SDS011;9663;48.996;8.334;2024-02-16T06:27:01;3.97;;;1.25;;
19059;SDS011;9663;48.996;8.334;2024-02-16T06:29:28;3.45;;;1.30;;
19059;SDS011;9663;48.996;8.334;2024-02-16T06:31:55;3.08;;;1.40;;
19059;SDS011;9663;48.996;8.334;2024-02-16T06:34:21;3.70;;;1.38;;
19059;SDS011;9663;48.996;8.334;2024-02-16T06:36:48;3.63;;;1.50;;
19059;SDS011;9663;48.996;8.334;2024-02-16T06:39:15;3.60;;;1.65;;
19059;SDS011;9663;48.996;8.334;2024-02-16T06:41:42;3.63;;;1.67;;
19059;SDS011;9663;48.996;8.334;2024-02-16T06:44:11;3.10;;;1.33;;
19059;SDS011;9663;48.996;8.334;2024-02-16T06:46:41;3.50;;;1.33;;
19059;SDS011;9663;48.996;8.334;2024-02-16T06:49:09;3.40;;;1.40;;
19059;SDS011;9663;48.996;8.334;2024-02-16T06:51:35;3.65;;;1.42;;
19059;SDS011;9663;48.996;8.334;2024-02-16T06:54:02;4.60;;;1.55;;
19059;SDS011;9663;48.996;8.334;2024-02-16T06:56:29;3.90;;;1.60;;
19059;SDS011;9663;48.996;8.334;2024-02-16T06:58:57;4.47;;;1.70;;
19059;SDS011;9663;48.996;8.334;2024-02-16T07:01:22;3.83;;;1.50;;
19059;SDS011;9663;48.996;8.334;2024-02-16T07:03:48;4.07;;;1.40;;
19059;SDS011;9663;48.996;8.334;2024-02-16T07:06:13;3.60;;;1.58;;
19059;SDS011;9663;48.996;8.334;2024-02-16T07:08:40;4.57;;;1.27;;
19059;SDS011;9663;48.996;8.334;2024-02-16T07:11:06;3.92;;;1.40;;
19059;SDS011;9663;48.996;8.334;2024-02-16T07:13:32;4.53;;;1.65;;
19059;SDS011;9663;48.996;8.334;2024-02-16T07:15:59;3.70;;;1.80;;
19059;SDS011;9663;48.996;8.334;2024-02-16T07:18:25;3.90;;;1.58;;
19059;SDS011;9663;48.996;8.334;2024-02-16T07:20:51;3.55;;;1.48;;
19059;SDS011;9663;48.996;8.334;2024-02-16T07:23:17;3.75;;;1.58;;
19059;SDS011;9663;48.996;8.334;2024-02-16T07:25:43;3.92;;;1.42;;
19059;SDS011;9663;48.996;8.334;2024-02-16T07:28:09;4.93;;;1.63;;
19059;SDS011;9663;48.996;8.334;2024-02-16T07:30:35;3.72;;;1.60;;
19059;SDS011;9663;48.996;8.334;2024-02-16T07:33:07;4.60;;;1.70;;
19059;SDS011;9663;48.996;8.334;2024-02-16T07:35:33;3.47;;;1.50;;
19059;SDS011;9663;48.996;8.334;2024-02-16T07:38:03;3.60;;;1.52;;
19059;SDS011;9663;48.996;8.334;2024-02-16T07:40:29;3.50;;;1.48;;
19059;SDS011;9663;48.996;8.334;2024-02-16T07:42:55;3.22;;;1.48;;
19059;SDS011;9663;48.996;8.334;2024-02-16T07:45:22;4.07;;;1.63;;
19059;SDS011;9663;48.996;8.334;2024-02-16T07:47:48;3.72;;;1.55;;
19059;SDS011;9663;48.996;8.334;2024-02-16T07:50:17;3.92;;;1.75;;
19059;SDS011;9663;48.996;8.334;2024-02-16T07:52:46;4.30;;;1.60;;
19059;SDS011;9663;48.996;8.334;2024-02-16T07:55:13;3.42;;;1.60;;
19059;SDS011;9663;48.996;8.334;2024-02-16T07:57:39;4.93;;;1.98;;
19059;SDS011;9663;48.996;8.334;2024-02-16T08:00:05;4.15;;;1.70;;
19059;SDS011;9663;48.996;8.334;2024-02-16T08:02:31;4.28;;;1.85;;
19059;SDS011;9663;48.996;8.334;2024-02-16T08:04:58;5.50;;;1.60;;
19059;SDS011;9663;48.996;8.334;2024-02-16T08:07:24;4.30;;;1.88;;
19059;SDS011;9663;48.996;8.334;2024-02-16T08:09:49;3.00;;;1.30;;
19059;SDS011;9663;48.996;8.334;2024-02-16T08:12:15;3.58;;;1.60;;
19059;SDS011;9663;48.996;8.334;2024-02-16T08:14:42;4.50;;;1.63;;
19059;SDS011;9663;48.996;8.334;2024-02-16T08:17:08;3.92;;;1.67;;
19059;SDS011;9663;48.996;8.334;2024-02-16T08:19:35;4.18;;;1.80;;
19059;SDS011;9663;48.996;8.334;2024-02-16T08:22:02;5.03;;;1.90;;
19059;SDS011;9663;48.996;8.334;2024-02-16T08:24:35;4.57;;;1.88;;
19059;SDS011;9663;48.996;8.334;2024-02-16T08:27:02;4.78;;;1.90;;
19059;SDS011;9663;48.996;8.334;2024-02-16T08:29:29;5.10;;;2.00;;
19059;SDS011;9663;48.996;8.334;2024-02-16T08:31:55;5.25;;;2.13;;
19059;SDS011;9663;48.996;8.334;2024-02-16T08:34:21;5.53;;;2.00;;
19059;SDS011;9663;48.996;8.334;2024-02-16T08:36:48;4.53;;;1.95;;
19059;SDS011;9663;48.996;8.334;2024-02-16T08:39:15;5.43;;;2.25;;
19059;SDS011;9663;48.996;8.334;2024-02-16T08:41:42;4.05;;;1.77;;
19059;SDS011;9663;48.996;8.334;2024-02-16T08:44:14;4.72;;;1.92;;
19059;SDS011;9663;48.996;8.334;2024-02-16T08:46:40;4.63;;;1.77;;
19059;SDS011;9663;48.996;8.334;2024-02-16T08:49:05;3.90;;;1.70;;
19059;SDS011;9663;48.996;8.334;2024-02-16T08:51:32;4.32;;;2.00;;
19059;SDS011;9663;48.996;8.334;2024-02-16T08:54:01;5.40;;;2.20;;
19059;SDS011;9663;48.996;8.334;2024-02-16T08:56:27;5.05;;;2.20;;
19059;SDS011;9663;48.996;8.334;2024-02-16T08:58:53;4.70;;;1.80;;
19059;SDS011;9663;48.996;8.334;2024-02-16T09:01:29;5.03;;;2.10;;
19059;SDS011;9663;48.996;8.334;2024-02-16T09:03:59;3.95;;;1.90;;
19059;SDS011;9663;48.996;8.334;2024-02-16T09:06:25;5.03;;;2.28;;
19059;SDS011;9663;48.996;8.334;2024-02-16T09:08:54;4.60;;;2.00;;
19059;SDS011;9663;48.996;8.334;2024-02-16T09:11:22;4.60;;;2.13;;
19059;SDS011;9663;48.996;8.334;2024-02-16T09:13:49;4.25;;;2.05;;
19059;SDS011;9663;48.996;8.334;2024-02-16T09:16:15;4.18;;;1.98;;
19059;SDS011;9663;48.996;8.334;2024-02-16T09:18:40;4.50;;;1.95;;
19059;SDS011;9663;48.996;8.334;2024-02-16T09:21:06;4.93;;;2.20;;
19059;SDS011;9663;48.996;8.334;2024-02-16T09:23:32;6.13;;;2.30;;
19059;SDS011;9663;48.996;8.334;2024-02-16T09:26:00;5.43;;;2.20;;
19059;SDS011;9663;48.996;8.334;2024-02-16T09:28:30;4.75;;;2.10;;
19059;SDS011;9663;48.996;8.334;2024-02-16T09:30:56;3.92;;;2.00;;
19059;SDS011;9663;48.996;8.334;2024-02-16T09:33:23;5.03;;;2.30;;
19059;SDS011;9663;48.996;8.334;2024-02-16T09:35:52;5.47;;;2.47;;
19059;SDS011;9663;48.996;8.334;2024-02-16T09:38:18;4.82;;;1.95;;
19059;SDS011;9663;48.996;8.334;2024-02-16T09:40:44;4.65;;;2.28;;
19059;SDS011;9663;48.996;8.334;2024-02-16T09:43:09;5.30;;;2.10;;
19059;SDS011;9663;48.996;8.334;2024-02-16T09:45:36;4.68;;;1.90;;
19059;SDS011;9663;48.996;8.334;2024-02-16T09:48:02;5.38;;;2.00;;
19059;SDS011;9663;48.996;8.334;2024-02-16T09:50:34;4.82;;;2.10;;
19059;SDS011;9663;48.996;8.334;2024-02-16T09:53:00;4.45;;;1.98;;
19059;SDS011;9663;48.996;8.334;2024-02-16T09:55:29;4.70;;;2.05;;
19059;SDS011;9663;48.996;8.334;2024-02-16T09:58:01;4.22;;;2.05;;
19059;SDS011;9663;48.996;8.334;2024-02-16T10:00:27;4.68;;;2.05;;
19059;SDS011;9663;48.996;8.334;2024-02-16T10:02:53;5.10;;;2.58;;
19059;SDS011;9663;48.996;8.334;2024-02-16T10:05:19;4.20;;;2.03;;
19059;SDS011;9663;48.996;8.334;2024-02-16T10:07:46;5.00;;;2.20;;
19059;SDS011;9663;48.996;8.334;2024-02-16T10:10:25;5.20;;;2.25;;
19059;SDS011;9663;48.996;8.334;2024-02-16T10:13:01;5.38;;;2.20;;
19059;SDS011;9663;48.996;8.334;2024-02-16T10:15:29;4.07;;;1.90;;
19059;SDS011;9663;48.996;8.334;2024-02-16T10:18:02;5.22;;;1.85;;
19059;SDS011;9663;48.996;8.334;2024-02-16T10:20:30;5.05;;;2.20;;
19059;SDS011;9663;48.996;8.334;2024-02-16T10:25:32;4.25;;;1.65;;
19059;SDS011;9663;48.996;8.334;2024-02-16T10:28:04;4.60;;;1.98;;
19059;SDS011;9663;48.996;8.334;2024-02-16T10:30:41;3.80;;;1.90;;
19059;SDS011;9663;48.996;8.334;2024-02-16T10:33:09;4.05;;;1.80;;
19059;SDS011;9663;48.996;8.334;2024-02-16T10:35:39;3.53;;;1.70;;
19059;SDS011;9663;48.996;8.334;2024-02-16T10:38:06;3.72;;;1.60;;
19059;SDS011;9663;48.996;8.334;2024-02-16T10:40:41;4.00;;;1.73;;
19059;SDS011;9663;48.996;8.334;2024-02-16T10:43:07;2.88;;;1.27;;
19059;SDS011;9663;48.996;8.334;2024-02-16T10:45:35;3.17;;;1.40;;
19059;SDS011;9663;48.996;8.334;2024-02-16T10:48:03;3.45;;;1.52;;
19059;SDS011;9663;48.996;8.334;2024-02-16T10:50:33;3.47;;;1.40;;
19059;SDS011;9663;48.996;8.334;2024-02-16T10:53:08;3.03;;;1.30;;
19059;SDS011;9663;48.996;8.334;2024-02-16T10:55:46;4.90;;;1.60;;
19059;SDS011;9663;48.996;8.334;2024-02-16T10:58:12;3.17;;;1.30;;
19059;SDS011;9663;48.996;8.334;2024-02-16T11:00:50;2.92;;;1.13;;
19059;SDS011;9663;48.996;8.334;2024-02-16T11:03:22;4.78;;;1.60;;
19059;SDS011;9663;48.996;8.334;2024-02-16T11:05:49;2.92;;;1.30;;
19059;SDS011;9663;48.996;8.334;2024-02-16T11:08:17;3.47;;;1.40;;
19059;SDS011;9663;48.996;8.334;2024-02-16T11:10:57;4.72;;;1.65;;
19059;SDS011;9663;48.996;8.334;2024-02-16T11:13:26;3.50;;;1.33;;
19059;SDS011;9663;48.996;8.334;2024-02-16T11:15:57;3.95;;;1.40;;
19059;SDS011;9663;48.996;8.334;2024-02-16T11:18:25;4.10;;;1.50;;
19059;SDS011;9663;48.996;8.334;2024-02-16T11:20:52;3.45;;;1.45;;
19059;SDS011;9663;48.996;8.334;2024-02-16T11:23:27;4.35;;;1.35;;
19059;SDS011;9663;48.996;8.334;2024-02-16T11:25:59;3.55;;;1.40;;
19059;SDS011;9663;48.996;8.334;2024-02-16T11:28:33;3.50;;;1.40;;
19059;SDS011;9663;48.996;8.334;2024-02-16T11:31:00;4.28;;;1.40;;
19059;SDS011;9663;48.996;8.334;2024-02-16T11:33:27;4.00;;;1.50;;
19059;SDS011;9663;48.996;8.334;2024-02-16T11:35:54;3.67;;;1.38;;
19059;SDS011;9663;48.996;8.334;2024-02-16T11:38:22;3.63;;;1.30;;
19059;SDS011;9663;48.996;8.334;2024-02-16T11:40:59;6.15;;;1.33;;
19059;SDS011;9663;48.996;8.334;2024-02-16T11:43:30;4.60;;;1.55;;
19059;SDS011;9663;48.996;8.334;2024-02-16T11:45:57;4.15;;;1.52;;
19059;SDS011;9663;48.996;8.334;2024-02-16T11:48:26;4.17;;;1.60;;
19059;SDS011;9663;48.996;8.334;2024-02-16T11:50:59;3.92;;;1.45;;
19059;SDS011;9663;48.996;8.334;2024-02-16T11:53:28;3.03;;;1.20;;
19059;SDS011;9663;48.996;8.334;2024-02-16T11:55:56;3.33;;;1.20;;
19059;SDS011;9663;48.996;8.334;2024-02-16T11:58:22;4.55;;;1.60;;
19059;SDS011;9663;48.996;8.334;2024-02-16T12:00:49;4.93;;;1.58;;
19059;SDS011;9663;48.996;8.334;2024-02-16T12:03:23;3.40;;;1.30;;
19059;SDS011;9663;48.996;8.334;2024-02-16T12:05:50;3.47;;;1.33;;
19059;SDS011;9663;48.996;8.334;2024-02-16T12:08:21;3.83;;;1.30;;
19059;SDS011;9663;48.996;8.334;2024-02-16T12:10:47;4.15;;;1.48;;
19059;SDS011;9663;48.996;8.334;2024-02-16T12:13:18;3.30;;;1.27;;
19059;SDS011;9663;48.996;8.334;2024-02-16T12:15:45;4.57;;;1.60;;
19059;SDS011;9663;48.996;8.334;2024-02-16T12:18:19;3.75;;;1.55;;
19059;SDS011;9663;48.996;8.334;2024-02-16T12:23:30;3.92;;;1.20;;
19059;SDS011;9663;48.996;8.334;2024-02-16T12:25:58;3.78;;;1.40;;
19059;SDS011;9663;48.996;8.334;2024-02-16T12:28:25;3.47;;;1.23;;
19059;SDS011;9663;48.996;8.334;2024-02-16T12:30:53;3.78;;;1.48;;
19059;SDS011;9663;48.996;8.334;2024-02-16T12:33:22;4.05;;;1.60;;
19059;SDS011;9663;48.996;8.334;2024-02-16T12:35:48;3.38;;;1.20;;
19059;SDS011;9663;48.996;8.334;2024-02-16T12:38:15;3.25;;;1.20;;
19059;SDS011;9663;48.996;8.334;2024-02-16T12:40:47;2.67;;;1.10;;
19059;SDS011;9663;48.996;8.334;2024-02-16T12:43:13;2.90;;;1.15;;
19059;SDS011;9663;48.996;8.334;2024-02-16T12:45:40;3.17;;;1.20;;
19059;SDS011;9663;48.996;8.334;2024-02-16T12:48:06;3.10;;;1.00;;
19059;SDS011;9663;48.996;8.334;2024-02-16T12:50:34;3.30;;;1.10;;
19059;SDS011;9663;48.996;8.334;2024-02-16T12:53:02;3.38;;;1.30;;
19059;SDS011;9663;48.996;8.334;2024-02-16T12:55:28;3.60;;;1.37;;
19059;SDS011;9663;48.996;8.334;2024-02-16T12:57:55;2.70;;;1.10;;
19059;SDS011;9663;48.996;8.334;2024-02-16T13:00:22;3.45;;;1.10;;
19059;SDS011;9663;48.996;8.334;2024-02-16T13:02:48;2.33;;;1.00;;
19059;SDS011;9663;48.996;8.334;2024-02-16T13:05:14;3.30;;;1.13;;
19059;SDS011;9663;48.996;8.334;2024-02-16T13:07:40;3.25;;;1.00;;
19059;SDS011;9663;48.996;8.334;2024-02-16T13:10:07;3.65;;;1.27;;
19059;SDS011;9663;48.996;8.334;2024-02-16T13:12:34;4.55;;;1.38;;
19059;SDS011;9663;48.996;8.334;2024-02-16T13:15:00;4.88;;;1.67;;
19059;SDS011;9663;48.996;8.334;2024-02-16T13:17:27;4.10;;;1.70;;
19059;SDS011;9663;48.996;8.334;2024-02-16T13:19:52;4.68;;;1.92;;
19059;SDS011;9663;48.996;8.334;2024-02-16T13:22:18;5.97;;;2.15;;
19059;SDS011;9663;48.996;8.334;2024-02-16T13:24:44;4.47;;;2.00;;
19059;SDS011;9663;48.996;8.334;2024-02-16T13:27:10;5.60;;;2.10;;
19059;SDS011;9663;48.996;8.334;2024-02-16T13:29:37;3.55;;;1.40;;
19059;SDS011;9663;48.996;8.334;2024-02-16T13:32:02;4.38;;;1.40;;
19059;SDS011;9663;48.996;8.334;2024-02-16T13:34:28;4.00;;;1.38;;
19059;SDS011;9663;48.996;8.334;2024-02-16T13:36:55;3.53;;;1.30;;
19059;SDS011;9663;48.996;8.334;2024-02-16T13:39:21;3.58;;;1.27;;
19059;SDS011;9663;48.996;8.334;2024-02-16T13:41:47;3.10;;;1.17;;
19059;SDS011;9663;48.996;8.334;2024-02-16T13:44:15;2.70;;;1.00;;
19059;SDS011;9663;48.996;8.334;2024-02-16T13:46:43;2.65;;;0.95;;
19059;SDS011;9663;48.996;8.334;2024-02-16T13:49:12;2.88;;;1.05;;
19059;SDS011;9663;48.996;8.334;2024-02-16T13:51:39;3.75;;;0.95;;
19059;SDS011;9663;48.996;8.334;2024-02-16T13:54:05;2.72;;;0.95;;
19059;SDS011;9663;48.996;8.334;2024-02-16T13:56:31;2.63;;;0.80;;
19059;SDS011;9663;48.996;8.334;2024-02-16T13:58:57;2.70;;;1.00;;
19059;SDS011;9663;48.996;8.334;2024-02-16T14:01:22;3.35;;;1.10;;
19059;SDS011;9663;48.996;8.334;2024-02-16T14:03:49;2.60;;;0.90;;
19059;SDS011;9663;48.996;8.334;2024-02-16T14:06:16;2.97;;;1.10;;
19059;SDS011;9663;48.996;8.334;2024-02-16T14:08:41;1.90;;;0.80;;
19059;SDS011;9663;48.996;8.334;2024-02-16T14:11:07;2.67;;;0.90;;
19059;SDS011;9663;48.996;8.334;2024-02-16T14:13:34;1.92;;;0.70;;
19059;SDS011;9663;48.996;8.334;2024-02-16T14:16:00;2.65;;;0.82;;
19059;SDS011;9663;48.996;8.334;2024-02-16T14:18:26;2.28;;;0.73;;
19059;SDS011;9663;48.996;8.334;2024-02-16T14:20:52;2.78;;;0.93;;
19059;SDS011;9663;48.996;8.334;2024-02-16T14:23:17;2.00;;;0.80;;
19059;SDS011;9663;48.996;8.334;2024-02-16T14:25:43;2.42;;;0.90;;
19059;SDS011;9663;48.996;8.334;2024-02-16T14:28:10;2.50;;;0.90;;
19059;SDS011;9663;48.996;8.334;2024-02-16T14:30:36;2.22;;;0.90;;
19059;SDS011;9663;48.996;8.334;2024-02-16T14:33:01;2.42;;;0.80;;
19059;SDS011;9663;48.996;8.334;2024-02-16T14:35:29;3.10;;;0.90;;
19059;SDS011;9663;48.996;8.334;2024-02-16T14:37:56;2.25;;;0.80;;
19059;SDS011;9663;48.996;8.334;2024-02-16T14:40:24;2.58;;;0.80;;
19059;SDS011;9663;48.996;8.334;2024-02-16T14:42:50;2.95;;;1.00;;
19059;SDS011;9663;48.996;8.334;2024-02-16T14:45:16;2.03;;;0.90;;
19059;SDS011;9663;48.996;8.334;2024-02-16T14:47:46;2.67;;;0.93;;
19059;SDS011;9663;48.996;8.334;2024-02-16T14:50:13;2.65;;;0.80;;
19059;SDS011;9663;48.996;8.334;2024-02-16T14:52:39;1.88;;;0.80;;
19059;SDS011;9663;48.996;8.334;2024-02-16T14:55:07;2.55;;;0.90;;
19059;SDS011;9663;48.996;8.334;2024-02-16T14:57:35;2.50;;;1.00;;
19059;SDS011;9663;48.996;8.334;2024-02-16T15:00:09;2.25;;;0.90;;
19059;SDS011;9663;48.996;8.334;2024-02-16T15:02:36;3.25;;;0.90;;
19059;SDS011;9663;48.996;8.334;2024-02-16T15:05:06;3.25;;;1.30;;